sensor_id;sensor_type;location;lat;lon;timestamp;P1;durP1;ratioP1;P2;durP2;ratioP2
16928;SDS011;8581;47.334;11.190;2023-07-09T00:00:39;6.67;;;4.10;;
16928;SDS011;8581;47.334;11.190;2023-07-09T00:03:11;4.97;;;3.70;;
16928;SDS011;8581;47.334;11.190;2023-07-09T00:05:42;5.13;;;4.10;;
16928;SDS011;8581;47.334;11.190;2023-07-09T00:08:21;5.40;;;3.87;;
16928;SDS011;8581;47.334;11.190;2023-07-09T00:10:50;6.17;;;3.50;;
16928;SDS011;8581;47.334;11.190;2023-07-09T00:13:22;4.17;;;3.77;;
16928;SDS011;8581;47.334;11.190;2023-07-09T00:15:55;5.87;;;3.87;;
16928;SDS011;8581;47.334;11.190;2023-07-09T00:18:25;6.47;;;3.60;;
16928;SDS011;8581;47.334;11.190;2023-07-09T00:20:57;4.80;;;4.07;;
16928;SDS011;8581;47.334;11.190;2023-07-09T00:23:29;5.77;;;4.13;;
16928;SDS011;8581;47.334;11.190;2023-07-09T00:26:00;5.90;;;3.90;;
16928;SDS011;8581;47.334;11.190;2023-07-09T00:28:32;3.70;;;3.30;;
16928;SDS011;8581;47.334;11.190;2023-07-09T00:31:03;5.07;;;3.53;;
16928;SDS011;8581;47.334;11.190;2023-07-09T00:33:35;5.27;;;4.13;;
16928;SDS011;8581;47.334;11.190;2023-07-09T00:36:11;4.97;;;3.60;;
16928;SDS011;8581;47.334;11.190;2023-07-09T00:38:45;4.87;;;4.10;;
16928;SDS011;8581;47.334;11.190;2023-07-09T00:41:18;5.07;;;3.60;;
16928;SDS011;8581;47.334;11.190;2023-07-09T00:43:49;6.73;;;3.50;;
16928;SDS011;8581;47.334;11.190;2023-07-09T00:49:28;7.23;;;4.30;;
16928;SDS011;8581;47.334;11.190;2023-07-09T00:52:00;4.83;;;3.90;;
16928;SDS011;8581;47.334;11.190;2023-07-09T00:54:33;4.70;;;4.17;;
16928;SDS011;8581;47.334;11.190;2023-07-09T00:57:08;6.00;;;4.20;;
16928;SDS011;8581;47.334;11.190;2023-07-09T00:59:38;7.07;;;4.10;;
16928;SDS011;8581;47.334;11.190;2023-07-09T01:02:09;6.13;;;4.13;;
16928;SDS011;8581;47.334;11.190;2023-07-09T01:04:41;5.87;;;4.10;;
16928;SDS011;8581;47.334;11.190;2023-07-09T01:07:13;6.27;;;4.03;;
16928;SDS011;8581;47.334;11.190;2023-07-09T01:09:44;4.57;;;4.03;;
16928;SDS011;8581;47.334;11.190;2023-07-09T01:12:16;6.27;;;4.10;;
16928;SDS011;8581;47.334;11.190;2023-07-09T01:14:48;5.00;;;4.07;;
16928;SDS011;8581;47.334;11.190;2023-07-09T01:17:19;6.23;;;4.47;;
16928;SDS011;8581;47.334;11.190;2023-07-09T01:19:51;6.97;;;3.93;;
16928;SDS011;8581;47.334;11.190;2023-07-09T01:22:23;5.83;;;4.33;;
16928;SDS011;8581;47.334;11.190;2023-07-09T01:24:58;6.70;;;4.40;;
16928;SDS011;8581;47.334;11.190;2023-07-09T01:27:33;5.13;;;4.20;;
16928;SDS011;8581;47.334;11.190;2023-07-09T01:30:06;5.20;;;4.07;;
16928;SDS011;8581;47.334;11.190;2023-07-09T01:32:36;5.03;;;4.33;;
16928;SDS011;8581;47.334;11.190;2023-07-09T01:35:07;7.67;;;4.60;;
16928;SDS011;8581;47.334;11.190;2023-07-09T01:37:39;4.73;;;4.23;;
16928;SDS011;8581;47.334;11.190;2023-07-09T01:40:11;5.87;;;4.07;;
16928;SDS011;8581;47.334;11.190;2023-07-09T01:42:43;4.93;;;4.43;;
16928;SDS011;8581;47.334;11.190;2023-07-09T01:45:14;6.33;;;4.20;;
16928;SDS011;8581;47.334;11.190;2023-07-09T01:47:46;5.87;;;4.53;;
16928;SDS011;8581;47.334;11.190;2023-07-09T01:50:18;5.30;;;4.03;;
16928;SDS011;8581;47.334;11.190;2023-07-09T01:52:49;5.00;;;4.50;;
16928;SDS011;8581;47.334;11.190;2023-07-09T01:55:21;5.53;;;4.60;;
16928;SDS011;8581;47.334;11.190;2023-07-09T01:57:52;5.07;;;4.47;;
16928;SDS011;8581;47.334;11.190;2023-07-09T02:00:24;6.90;;;4.70;;
16928;SDS011;8581;47.334;11.190;2023-07-09T02:02:56;5.50;;;4.50;;
16928;SDS011;8581;47.334;11.190;2023-07-09T02:05:29;7.70;;;4.10;;
16928;SDS011;8581;47.334;11.190;2023-07-09T02:07:59;5.47;;;4.20;;
16928;SDS011;8581;47.334;11.190;2023-07-09T02:10:30;5.77;;;4.50;;
16928;SDS011;8581;47.334;11.190;2023-07-09T02:13:02;5.13;;;4.63;;
16928;SDS011;8581;47.334;11.190;2023-07-09T02:15:34;6.57;;;4.50;;
16928;SDS011;8581;47.334;11.190;2023-07-09T02:18:05;6.37;;;4.50;;
16928;SDS011;8581;47.334;11.190;2023-07-09T02:20:37;6.30;;;4.80;;
16928;SDS011;8581;47.334;11.190;2023-07-09T02:23:08;5.63;;;4.67;;
16928;SDS011;8581;47.334;11.190;2023-07-09T02:25:40;6.10;;;4.60;;
16928;SDS011;8581;47.334;11.190;2023-07-09T02:28:12;5.90;;;4.63;;
16928;SDS011;8581;47.334;11.190;2023-07-09T02:30:43;6.03;;;4.80;;
16928;SDS011;8581;47.334;11.190;2023-07-09T02:33:15;6.60;;;5.10;;
16928;SDS011;8581;47.334;11.190;2023-07-09T02:35:47;5.73;;;4.33;;
16928;SDS011;8581;47.334;11.190;2023-07-09T02:38:18;6.43;;;4.80;;
16928;SDS011;8581;47.334;11.190;2023-07-09T02:40:50;6.30;;;4.43;;
16928;SDS011;8581;47.334;11.190;2023-07-09T02:43:21;6.93;;;4.73;;
16928;SDS011;8581;47.334;11.190;2023-07-09T02:45:53;6.13;;;4.47;;
16928;SDS011;8581;47.334;11.190;2023-07-09T02:48:24;5.33;;;4.67;;
16928;SDS011;8581;47.334;11.190;2023-07-09T02:50:56;4.87;;;4.33;;
16928;SDS011;8581;47.334;11.190;2023-07-09T02:53:28;5.63;;;4.57;;
16928;SDS011;8581;47.334;11.190;2023-07-09T02:55:59;5.97;;;4.73;;
16928;SDS011;8581;47.334;11.190;2023-07-09T02:58:31;6.47;;;5.20;;
16928;SDS011;8581;47.334;11.190;2023-07-09T03:01:02;5.83;;;4.80;;
16928;SDS011;8581;47.334;11.190;2023-07-09T03:03:34;7.43;;;5.27;;
16928;SDS011;8581;47.334;11.190;2023-07-09T03:06:06;6.33;;;4.60;;
16928;SDS011;8581;47.334;11.190;2023-07-09T03:08:37;5.17;;;4.40;;
16928;SDS011;8581;47.334;11.190;2023-07-09T03:11:09;7.07;;;4.77;;
16928;SDS011;8581;47.334;11.190;2023-07-09T03:13:41;6.63;;;4.70;;
16928;SDS011;8581;47.334;11.190;2023-07-09T03:16:12;5.27;;;4.50;;
16928;SDS011;8581;47.334;11.190;2023-07-09T03:18:44;5.53;;;4.37;;
16928;SDS011;8581;47.334;11.190;2023-07-09T03:21:15;5.77;;;4.97;;
16928;SDS011;8581;47.334;11.190;2023-07-09T03:23:47;5.13;;;4.20;;
16928;SDS011;8581;47.334;11.190;2023-07-09T03:26:18;4.63;;;4.00;;
16928;SDS011;8581;47.334;11.190;2023-07-09T03:28:50;4.47;;;4.07;;
16928;SDS011;8581;47.334;11.190;2023-07-09T03:31:22;6.27;;;4.47;;
16928;SDS011;8581;47.334;11.190;2023-07-09T03:33:53;7.43;;;4.43;;
16928;SDS011;8581;47.334;11.190;2023-07-09T03:36:25;6.90;;;4.73;;
16928;SDS011;8581;47.334;11.190;2023-07-09T03:38:56;8.40;;;4.50;;
16928;SDS011;8581;47.334;11.190;2023-07-09T03:41:28;5.63;;;4.97;;
16928;SDS011;8581;47.334;11.190;2023-07-09T03:44:00;5.90;;;4.50;;
16928;SDS011;8581;47.334;11.190;2023-07-09T03:46:31;6.20;;;5.27;;
16928;SDS011;8581;47.334;11.190;2023-07-09T03:49:03;5.70;;;4.67;;
16928;SDS011;8581;47.334;11.190;2023-07-09T03:51:34;5.43;;;4.43;;
16928;SDS011;8581;47.334;11.190;2023-07-09T03:54:06;5.93;;;4.50;;
16928;SDS011;8581;47.334;11.190;2023-07-09T03:56:38;5.73;;;4.50;;
16928;SDS011;8581;47.334;11.190;2023-07-09T03:59:09;6.83;;;4.87;;
16928;SDS011;8581;47.334;11.190;2023-07-09T04:01:41;6.60;;;4.80;;
16928;SDS011;8581;47.334;11.190;2023-07-09T04:04:14;7.07;;;5.07;;
16928;SDS011;8581;47.334;11.190;2023-07-09T04:06:46;5.47;;;4.97;;
16928;SDS011;8581;47.334;11.190;2023-07-09T04:09:17;5.87;;;4.50;;
16928;SDS011;8581;47.334;11.190;2023-07-09T04:11:50;6.07;;;4.87;;
16928;SDS011;8581;47.334;11.190;2023-07-09T04:14:22;5.67;;;4.20;;
16928;SDS011;8581;47.334;11.190;2023-07-09T04:16:53;5.17;;;4.67;;
16928;SDS011;8581;47.334;11.190;2023-07-09T04:19:25;6.63;;;4.40;;
16928;SDS011;8581;47.334;11.190;2023-07-09T04:21:56;8.17;;;4.57;;
16928;SDS011;8581;47.334;11.190;2023-07-09T04:24:29;5.03;;;4.57;;
16928;SDS011;8581;47.334;11.190;2023-07-09T04:27:00;6.03;;;4.70;;
16928;SDS011;8581;47.334;11.190;2023-07-09T04:29:32;5.30;;;4.80;;
16928;SDS011;8581;47.334;11.190;2023-07-09T04:32:05;4.80;;;4.20;;
16928;SDS011;8581;47.334;11.190;2023-07-09T04:34:38;7.97;;;4.50;;
16928;SDS011;8581;47.334;11.190;2023-07-09T04:37:10;6.27;;;4.30;;
16928;SDS011;8581;47.334;11.190;2023-07-09T04:39:41;5.73;;;4.50;;
16928;SDS011;8581;47.334;11.190;2023-07-09T04:42:13;6.80;;;4.67;;
16928;SDS011;8581;47.334;11.190;2023-07-09T04:44:44;6.50;;;4.73;;
16928;SDS011;8581;47.334;11.190;2023-07-09T04:47:16;7.07;;;4.50;;
16928;SDS011;8581;47.334;11.190;2023-07-09T04:49:47;7.40;;;4.50;;
16928;SDS011;8581;47.334;11.190;2023-07-09T04:52:19;6.93;;;4.47;;
16928;SDS011;8581;47.334;11.190;2023-07-09T04:54:50;5.97;;;4.40;;
16928;SDS011;8581;47.334;11.190;2023-07-09T04:57:22;6.00;;;4.63;;
16928;SDS011;8581;47.334;11.190;2023-07-09T04:59:54;4.93;;;3.97;;
16928;SDS011;8581;47.334;11.190;2023-07-09T05:02:25;5.23;;;4.63;;
16928;SDS011;8581;47.334;11.190;2023-07-09T05:04:57;7.27;;;4.60;;
16928;SDS011;8581;47.334;11.190;2023-07-09T05:07:28;4.47;;;4.00;;
16928;SDS011;8581;47.334;11.190;2023-07-09T05:10:00;5.93;;;4.33;;
16928;SDS011;8581;47.334;11.190;2023-07-09T05:12:32;4.73;;;3.93;;
16928;SDS011;8581;47.334;11.190;2023-07-09T05:15:04;6.80;;;4.33;;
16928;SDS011;8581;47.334;11.190;2023-07-09T05:17:36;6.70;;;4.30;;
16928;SDS011;8581;47.334;11.190;2023-07-09T05:20:08;6.00;;;4.50;;
16928;SDS011;8581;47.334;11.190;2023-07-09T05:22:40;5.40;;;4.23;;
16928;SDS011;8581;47.334;11.190;2023-07-09T05:25:12;5.90;;;4.53;;
16928;SDS011;8581;47.334;11.190;2023-07-09T05:27:43;4.30;;;3.90;;
16928;SDS011;8581;47.334;11.190;2023-07-09T05:30:15;6.27;;;4.30;;
16928;SDS011;8581;47.334;11.190;2023-07-09T05:32:47;5.37;;;4.07;;
16928;SDS011;8581;47.334;11.190;2023-07-09T05:35:18;5.13;;;4.03;;
16928;SDS011;8581;47.334;11.190;2023-07-09T05:37:50;3.67;;;3.20;;
16928;SDS011;8581;47.334;11.190;2023-07-09T05:40:21;3.80;;;3.40;;
16928;SDS011;8581;47.334;11.190;2023-07-09T05:42:53;4.73;;;3.60;;
16928;SDS011;8581;47.334;11.190;2023-07-09T05:45:24;5.47;;;3.40;;
16928;SDS011;8581;47.334;11.190;2023-07-09T05:47:57;5.97;;;3.53;;
16928;SDS011;8581;47.334;11.190;2023-07-09T05:50:28;5.20;;;3.20;;
16928;SDS011;8581;47.334;11.190;2023-07-09T05:53:00;5.30;;;3.50;;
16928;SDS011;8581;47.334;11.190;2023-07-09T05:55:32;7.33;;;3.40;;
16928;SDS011;8581;47.334;11.190;2023-07-09T05:58:03;4.80;;;3.50;;
16928;SDS011;8581;47.334;11.190;2023-07-09T06:00:35;5.43;;;3.73;;
16928;SDS011;8581;47.334;11.190;2023-07-09T06:03:12;6.73;;;3.40;;
16928;SDS011;8581;47.334;11.190;2023-07-09T06:05:43;3.70;;;3.30;;
16928;SDS011;8581;47.334;11.190;2023-07-09T06:08:15;5.93;;;3.07;;
16928;SDS011;8581;47.334;11.190;2023-07-09T06:10:51;4.40;;;3.13;;
16928;SDS011;8581;47.334;11.190;2023-07-09T06:13:26;5.62;;;3.25;;
16928;SDS011;8581;47.334;11.190;2023-07-09T06:15:58;5.00;;;2.97;;
16928;SDS011;8581;47.334;11.190;2023-07-09T06:18:29;5.10;;;3.70;;
16928;SDS011;8581;47.334;11.190;2023-07-09T06:21:01;5.50;;;3.65;;
16928;SDS011;8581;47.334;11.190;2023-07-09T06:23:32;4.10;;;3.30;;
16928;SDS011;8581;47.334;11.190;2023-07-09T06:26:05;4.10;;;3.12;;
16928;SDS011;8581;47.334;11.190;2023-07-09T06:28:36;7.63;;;3.43;;
16928;SDS011;8581;47.334;11.190;2023-07-09T06:31:08;6.35;;;3.40;;
16928;SDS011;8581;47.334;11.190;2023-07-09T06:33:39;4.00;;;3.37;;
16928;SDS011;8581;47.334;11.190;2023-07-09T06:36:11;6.12;;;3.72;;
16928;SDS011;8581;47.334;11.190;2023-07-09T06:38:43;6.05;;;3.05;;
16928;SDS011;8581;47.334;11.190;2023-07-09T06:41:14;4.20;;;3.00;;
16928;SDS011;8581;47.334;11.190;2023-07-09T06:43:46;6.97;;;3.35;;
16928;SDS011;8581;47.334;11.190;2023-07-09T06:46:18;3.77;;;3.27;;
16928;SDS011;8581;47.334;11.190;2023-07-09T06:48:49;4.80;;;2.87;;
16928;SDS011;8581;47.334;11.190;2023-07-09T06:51:21;4.37;;;3.25;;
16928;SDS011;8581;47.334;11.190;2023-07-09T06:53:52;6.35;;;3.22;;
16928;SDS011;8581;47.334;11.190;2023-07-09T06:56:24;4.45;;;2.85;;
16928;SDS011;8581;47.334;11.190;2023-07-09T06:58:55;3.95;;;3.02;;
16928;SDS011;8581;47.334;11.190;2023-07-09T07:01:27;4.80;;;3.10;;
16928;SDS011;8581;47.334;11.190;2023-07-09T07:03:59;3.40;;;2.90;;
16928;SDS011;8581;47.334;11.190;2023-07-09T07:06:30;7.37;;;3.40;;
16928;SDS011;8581;47.334;11.190;2023-07-09T07:09:02;6.87;;;3.40;;
16928;SDS011;8581;47.334;11.190;2023-07-09T07:11:34;3.98;;;3.02;;
16928;SDS011;8581;47.334;11.190;2023-07-09T07:14:05;6.17;;;3.42;;
16928;SDS011;8581;47.334;11.190;2023-07-09T07:16:37;5.87;;;3.15;;
16928;SDS011;8581;47.334;11.190;2023-07-09T07:19:08;4.22;;;3.37;;
16928;SDS011;8581;47.334;11.190;2023-07-09T07:21:40;4.22;;;3.50;;
16928;SDS011;8581;47.334;11.190;2023-07-09T07:24:12;8.88;;;3.30;;
16928;SDS011;8581;47.334;11.190;2023-07-09T07:26:43;4.08;;;3.00;;
16928;SDS011;8581;47.334;11.190;2023-07-09T07:29:15;5.17;;;3.30;;
16928;SDS011;8581;47.334;11.190;2023-07-09T07:31:46;4.40;;;3.27;;
16928;SDS011;8581;47.334;11.190;2023-07-09T07:34:18;3.12;;;2.83;;
16928;SDS011;8581;47.334;11.190;2023-07-09T07:36:49;4.83;;;3.35;;
16928;SDS011;8581;47.334;11.190;2023-07-09T07:39:21;4.80;;;3.50;;
16928;SDS011;8581;47.334;11.190;2023-07-09T07:41:53;3.83;;;3.42;;
16928;SDS011;8581;47.334;11.190;2023-07-09T07:44:27;6.45;;;3.90;;
16928;SDS011;8581;47.334;11.190;2023-07-09T07:46:59;6.12;;;3.70;;
16928;SDS011;8581;47.334;11.190;2023-07-09T07:49:34;3.37;;;2.98;;
16928;SDS011;8581;47.334;11.190;2023-07-09T07:52:06;4.92;;;3.15;;
16928;SDS011;8581;47.334;11.190;2023-07-09T07:54:38;5.53;;;3.37;;
16928;SDS011;8581;47.334;11.190;2023-07-09T07:57:09;3.33;;;2.95;;
16928;SDS011;8581;47.334;11.190;2023-07-09T07:59:42;3.22;;;2.83;;
16928;SDS011;8581;47.334;11.190;2023-07-09T08:02:14;3.90;;;3.15;;
16928;SDS011;8581;47.334;11.190;2023-07-09T08:04:45;5.65;;;3.22;;
16928;SDS011;8581;47.334;11.190;2023-07-09T08:07:17;5.15;;;3.35;;
16928;SDS011;8581;47.334;11.190;2023-07-09T08:09:49;5.03;;;3.10;;
16928;SDS011;8581;47.334;11.190;2023-07-09T08:12:20;3.15;;;2.85;;
16928;SDS011;8581;47.334;11.190;2023-07-09T08:14:52;3.58;;;3.25;;
16928;SDS011;8581;47.334;11.190;2023-07-09T08:17:24;5.22;;;3.50;;
16928;SDS011;8581;47.334;11.190;2023-07-09T08:19:57;3.95;;;3.20;;
16928;SDS011;8581;47.334;11.190;2023-07-09T08:22:28;3.87;;;3.40;;
16928;SDS011;8581;47.334;11.190;2023-07-09T08:25:00;5.83;;;3.52;;
16928;SDS011;8581;47.334;11.190;2023-07-09T08:27:32;4.20;;;3.40;;
16928;SDS011;8581;47.334;11.190;2023-07-09T08:30:05;4.80;;;3.50;;
16928;SDS011;8581;47.334;11.190;2023-07-09T08:32:37;4.67;;;3.08;;
16928;SDS011;8581;47.334;11.190;2023-07-09T08:35:09;3.42;;;3.12;;
16928;SDS011;8581;47.334;11.190;2023-07-09T08:37:41;8.43;;;3.30;;
16928;SDS011;8581;47.334;11.190;2023-07-09T08:40:13;3.55;;;3.22;;
16928;SDS011;8581;47.334;11.190;2023-07-09T08:42:46;6.75;;;3.25;;
16928;SDS011;8581;47.334;11.190;2023-07-09T08:45:28;4.87;;;3.20;;
16928;SDS011;8581;47.334;11.190;2023-07-09T08:48:04;5.30;;;3.02;;
16928;SDS011;8581;47.334;11.190;2023-07-09T08:50:37;6.20;;;3.22;;
16928;SDS011;8581;47.334;11.190;2023-07-09T08:53:09;4.62;;;3.10;;
16928;SDS011;8581;47.334;11.190;2023-07-09T08:55:40;5.47;;;3.30;;
16928;SDS011;8581;47.334;11.190;2023-07-09T08:58:17;4.65;;;2.80;;
16928;SDS011;8581;47.334;11.190;2023-07-09T09:00:49;4.12;;;2.95;;
16928;SDS011;8581;47.334;11.190;2023-07-09T09:03:27;4.97;;;3.15;;
16928;SDS011;8581;47.334;11.190;2023-07-09T09:06:01;5.92;;;3.02;;
16928;SDS011;8581;47.334;11.190;2023-07-09T09:08:39;4.70;;;3.27;;
16928;SDS011;8581;47.334;11.190;2023-07-09T09:11:10;3.02;;;2.83;;
16928;SDS011;8581;47.334;11.190;2023-07-09T09:13:51;5.83;;;3.30;;
16928;SDS011;8581;47.334;11.190;2023-07-09T09:16:25;4.05;;;2.90;;
16928;SDS011;8581;47.334;11.190;2023-07-09T09:18:57;3.37;;;2.85;;
16928;SDS011;8581;47.334;11.190;2023-07-09T09:21:31;3.52;;;2.40;;
16928;SDS011;8581;47.334;11.190;2023-07-09T09:24:12;3.87;;;2.55;;
16928;SDS011;8581;47.334;11.190;2023-07-09T09:26:44;4.53;;;2.70;;
16928;SDS011;8581;47.334;11.190;2023-07-09T09:29:16;3.77;;;3.00;;
16928;SDS011;8581;47.334;11.190;2023-07-09T09:31:48;3.40;;;2.87;;
16928;SDS011;8581;47.334;11.190;2023-07-09T09:34:25;3.33;;;2.72;;
16928;SDS011;8581;47.334;11.190;2023-07-09T09:36:55;4.45;;;2.42;;
16928;SDS011;8581;47.334;11.190;2023-07-09T09:39:27;4.47;;;2.22;;
16928;SDS011;8581;47.334;11.190;2023-07-09T09:41:58;4.28;;;2.70;;
16928;SDS011;8581;47.334;11.190;2023-07-09T09:44:30;4.12;;;2.72;;
16928;SDS011;8581;47.334;11.190;2023-07-09T09:47:01;4.62;;;2.70;;
16928;SDS011;8581;47.334;11.190;2023-07-09T09:49:41;3.00;;;2.42;;
16928;SDS011;8581;47.334;11.190;2023-07-09T09:52:14;4.97;;;2.83;;
16928;SDS011;8581;47.334;11.190;2023-07-09T09:54:52;2.55;;;2.30;;
16928;SDS011;8581;47.334;11.190;2023-07-09T09:57:23;3.77;;;2.67;;
16928;SDS011;8581;47.334;11.190;2023-07-09T09:59:55;4.45;;;3.00;;
16928;SDS011;8581;47.334;11.190;2023-07-09T10:02:28;3.92;;;2.95;;
16928;SDS011;8581;47.334;11.190;2023-07-09T10:05:00;4.35;;;2.87;;
16928;SDS011;8581;47.334;11.190;2023-07-09T10:07:37;3.35;;;3.00;;
16928;SDS011;8581;47.334;11.190;2023-07-09T10:10:13;3.27;;;2.65;;
16928;SDS011;8581;47.334;11.190;2023-07-09T10:13:22;4.33;;;2.72;;
16928;SDS011;8581;47.334;11.190;2023-07-09T10:15:40;3.80;;;2.90;;
16928;SDS011;8581;47.334;11.190;2023-07-09T10:18:16;4.50;;;2.62;;
16928;SDS011;8581;47.334;11.190;2023-07-09T10:21:02;4.55;;;3.42;;
16928;SDS011;8581;47.334;11.190;2023-07-09T10:26:25;4.80;;;3.12;;
16928;SDS011;8581;47.334;11.190;2023-07-09T10:28:59;4.25;;;2.75;;
16928;SDS011;8581;47.334;11.190;2023-07-09T10:31:32;7.78;;;2.87;;
16928;SDS011;8581;47.334;11.190;2023-07-09T10:34:12;5.28;;;2.77;;
16928;SDS011;8581;47.334;11.190;2023-07-09T10:37:00;4.30;;;2.83;;
16928;SDS011;8581;47.334;11.190;2023-07-09T10:39:47;4.47;;;3.00;;
16928;SDS011;8581;47.334;11.190;2023-07-09T10:42:24;6.60;;;2.83;;
16928;SDS011;8581;47.334;11.190;2023-07-09T10:44:58;5.72;;;2.90;;
16928;SDS011;8581;47.334;11.190;2023-07-09T10:47:30;4.35;;;2.85;;
16928;SDS011;8581;47.334;11.190;2023-07-09T10:50:02;3.80;;;3.17;;
16928;SDS011;8581;47.334;11.190;2023-07-09T10:52:34;4.40;;;3.00;;
16928;SDS011;8581;47.334;11.190;2023-07-09T10:55:15;3.70;;;2.58;;
16928;SDS011;8581;47.334;11.190;2023-07-09T10:58:19;3.10;;;2.80;;
16928;SDS011;8581;47.334;11.190;2023-07-09T11:00:34;3.52;;;2.75;;
16928;SDS011;8581;47.334;11.190;2023-07-09T11:03:10;3.92;;;2.72;;
16928;SDS011;8581;47.334;11.190;2023-07-09T11:05:37;4.00;;;2.55;;
16928;SDS011;8581;47.334;11.190;2023-07-09T11:08:10;3.60;;;2.83;;
16928;SDS011;8581;47.334;11.190;2023-07-09T11:10:46;3.58;;;2.50;;
16928;SDS011;8581;47.334;11.190;2023-07-09T11:13:17;3.47;;;2.65;;
16928;SDS011;8581;47.334;11.190;2023-07-09T11:15:49;3.42;;;2.60;;
16928;SDS011;8581;47.334;11.190;2023-07-09T11:18:21;3.27;;;2.30;;
16928;SDS011;8581;47.334;11.190;2023-07-09T11:20:58;3.55;;;2.90;;
16928;SDS011;8581;47.334;11.190;2023-07-09T11:23:36;5.28;;;2.75;;
16928;SDS011;8581;47.334;11.190;2023-07-09T11:26:03;4.10;;;2.45;;
16928;SDS011;8581;47.334;11.190;2023-07-09T11:28:34;5.60;;;2.52;;
16928;SDS011;8581;47.334;11.190;2023-07-09T11:31:07;3.62;;;2.50;;
16928;SDS011;8581;47.334;11.190;2023-07-09T11:33:45;3.02;;;2.58;;
16928;SDS011;8581;47.334;11.190;2023-07-09T11:36:12;2.72;;;2.52;;
16928;SDS011;8581;47.334;11.190;2023-07-09T11:38:44;3.37;;;2.50;;
16928;SDS011;8581;47.334;11.190;2023-07-09T11:44:28;2.85;;;2.40;;
16928;SDS011;8581;47.334;11.190;2023-07-09T11:46:49;3.00;;;2.40;;
16928;SDS011;8581;47.334;11.190;2023-07-09T11:49:16;3.17;;;2.60;;
16928;SDS011;8581;47.334;11.190;2023-07-09T11:51:48;2.67;;;2.45;;
16928;SDS011;8581;47.334;11.190;2023-07-09T11:54:19;6.00;;;2.62;;
16928;SDS011;8581;47.334;11.190;2023-07-09T11:56:54;4.25;;;2.45;;
16928;SDS011;8581;47.334;11.190;2023-07-09T11:59:25;5.15;;;2.60;;
16928;SDS011;8581;47.334;11.190;2023-07-09T12:01:57;2.87;;;2.58;;
16928;SDS011;8581;47.334;11.190;2023-07-09T12:04:31;3.75;;;2.83;;
16928;SDS011;8581;47.334;11.190;2023-07-09T12:07:01;2.83;;;2.58;;
16928;SDS011;8581;47.334;11.190;2023-07-09T12:09:36;3.60;;;2.70;;
16928;SDS011;8581;47.334;11.190;2023-07-09T12:12:04;3.92;;;2.77;;
16928;SDS011;8581;47.334;11.190;2023-07-09T12:14:36;5.42;;;2.62;;
16928;SDS011;8581;47.334;11.190;2023-07-09T12:17:08;3.47;;;2.60;;
16928;SDS011;8581;47.334;11.190;2023-07-09T12:19:39;3.12;;;2.67;;
16928;SDS011;8581;47.334;11.190;2023-07-09T12:22:15;2.92;;;2.62;;
16928;SDS011;8581;47.334;11.190;2023-07-09T12:24:49;3.77;;;2.85;;
16928;SDS011;8581;47.334;11.190;2023-07-09T12:27:21;3.98;;;2.80;;
16928;SDS011;8581;47.334;11.190;2023-07-09T12:29:53;3.92;;;2.80;;
16928;SDS011;8581;47.334;11.190;2023-07-09T12:32:24;3.60;;;2.20;;
16928;SDS011;8581;47.334;11.190;2023-07-09T12:34:56;3.85;;;2.40;;
16928;SDS011;8581;47.334;11.190;2023-07-09T12:37:28;3.22;;;2.15;;
16928;SDS011;8581;47.334;11.190;2023-07-09T12:39:59;4.22;;;2.27;;
16928;SDS011;8581;47.334;11.190;2023-07-09T12:42:32;3.55;;;2.60;;
16928;SDS011;8581;47.334;11.190;2023-07-09T12:45:02;2.30;;;2.10;;
16928;SDS011;8581;47.334;11.190;2023-07-09T12:47:34;3.52;;;2.35;;
16928;SDS011;8581;47.334;11.190;2023-07-09T12:50:16;4.60;;;2.58;;
16928;SDS011;8581;47.334;11.190;2023-07-09T12:53:01;4.85;;;2.60;;
16928;SDS011;8581;47.334;11.190;2023-07-09T12:55:37;4.37;;;2.50;;
16928;SDS011;8581;47.334;11.190;2023-07-09T12:58:03;3.67;;;2.37;;
16928;SDS011;8581;47.334;11.190;2023-07-09T13:00:34;2.77;;;2.37;;
16928;SDS011;8581;47.334;11.190;2023-07-09T13:03:12;3.40;;;2.62;;
16928;SDS011;8581;47.334;11.190;2023-07-09T13:05:38;4.08;;;2.65;;
16928;SDS011;8581;47.334;11.190;2023-07-09T13:08:12;3.80;;;2.52;;
16928;SDS011;8581;47.334;11.190;2023-07-09T13:10:43;5.17;;;2.62;;
16928;SDS011;8581;47.334;11.190;2023-07-09T13:13:15;3.45;;;2.35;;
16928;SDS011;8581;47.334;11.190;2023-07-09T13:15:48;3.47;;;2.87;;
16928;SDS011;8581;47.334;11.190;2023-07-09T13:18:18;4.87;;;2.70;;
16928;SDS011;8581;47.334;11.190;2023-07-09T13:20:50;2.98;;;2.67;;
16928;SDS011;8581;47.334;11.190;2023-07-09T13:23:23;3.02;;;2.50;;
16928;SDS011;8581;47.334;11.190;2023-07-09T13:25:54;2.80;;;2.35;;
16928;SDS011;8581;47.334;11.190;2023-07-09T13:28:28;3.05;;;2.50;;
16928;SDS011;8581;47.334;11.190;2023-07-09T13:30:58;2.90;;;2.58;;
16928;SDS011;8581;47.334;11.190;2023-07-09T13:33:30;4.65;;;2.35;;
16928;SDS011;8581;47.334;11.190;2023-07-09T13:36:01;3.75;;;2.80;;
16928;SDS011;8581;47.334;11.190;2023-07-09T13:38:33;2.92;;;2.70;;
16928;SDS011;8581;47.334;11.190;2023-07-09T13:41:10;4.20;;;2.65;;
16928;SDS011;8581;47.334;11.190;2023-07-09T13:43:43;2.95;;;2.37;;
16928;SDS011;8581;47.334;11.190;2023-07-09T13:46:13;3.37;;;2.25;;
16928;SDS011;8581;47.334;11.190;2023-07-09T13:48:45;3.20;;;2.50;;
16928;SDS011;8581;47.334;11.190;2023-07-09T13:51:19;3.45;;;2.50;;
16928;SDS011;8581;47.334;11.190;2023-07-09T13:53:50;2.60;;;2.40;;
16928;SDS011;8581;47.334;11.190;2023-07-09T13:56:21;4.10;;;2.58;;
16928;SDS011;8581;47.334;11.190;2023-07-09T13:58:53;3.17;;;2.47;;
16928;SDS011;8581;47.334;11.190;2023-07-09T14:01:24;5.67;;;2.65;;
16928;SDS011;8581;47.334;11.190;2023-07-09T14:03:56;3.62;;;2.85;;
16928;SDS011;8581;47.334;11.190;2023-07-09T14:06:28;3.15;;;2.70;;
16928;SDS011;8581;47.334;11.190;2023-07-09T14:08:59;6.05;;;2.75;;
16928;SDS011;8581;47.334;11.190;2023-07-09T14:11:31;4.60;;;2.65;;
16928;SDS011;8581;47.334;11.190;2023-07-09T14:14:04;3.27;;;2.55;;
16928;SDS011;8581;47.334;11.190;2023-07-09T14:16:34;3.85;;;2.83;;
16928;SDS011;8581;47.334;11.190;2023-07-09T14:19:09;3.35;;;2.80;;
16928;SDS011;8581;47.334;11.190;2023-07-09T14:21:37;5.28;;;2.80;;
16928;SDS011;8581;47.334;11.190;2023-07-09T14:24:19;3.80;;;2.45;;
16928;SDS011;8581;47.334;11.190;2023-07-09T14:26:51;3.80;;;2.47;;
16928;SDS011;8581;47.334;11.190;2023-07-09T14:29:22;3.35;;;2.77;;
16928;SDS011;8581;47.334;11.190;2023-07-09T14:31:54;2.62;;;2.42;;
16928;SDS011;8581;47.334;11.190;2023-07-09T14:34:27;2.65;;;2.45;;
16928;SDS011;8581;47.334;11.190;2023-07-09T14:36:59;5.12;;;2.62;;
16928;SDS011;8581;47.334;11.190;2023-07-09T14:39:30;3.35;;;2.60;;
16928;SDS011;8581;47.334;11.190;2023-07-09T14:42:02;3.75;;;2.80;;
16928;SDS011;8581;47.334;11.190;2023-07-09T14:44:34;4.25;;;2.47;;
16928;SDS011;8581;47.334;11.190;2023-07-09T14:47:09;2.90;;;2.50;;
16928;SDS011;8581;47.334;11.190;2023-07-09T14:49:38;3.08;;;2.50;;
16928;SDS011;8581;47.334;11.190;2023-07-09T14:52:11;3.50;;;2.35;;
16928;SDS011;8581;47.334;11.190;2023-07-09T14:54:43;3.72;;;2.60;;
16928;SDS011;8581;47.334;11.190;2023-07-09T14:57:17;3.47;;;2.27;;
16928;SDS011;8581;47.334;11.190;2023-07-09T14:59:48;4.10;;;2.58;;
16928;SDS011;8581;47.334;11.190;2023-07-09T15:02:25;3.85;;;2.85;;
16928;SDS011;8581;47.334;11.190;2023-07-09T15:05:02;4.05;;;2.67;;
16928;SDS011;8581;47.334;11.190;2023-07-09T15:07:33;3.42;;;2.77;;
16928;SDS011;8581;47.334;11.190;2023-07-09T15:10:05;2.70;;;2.37;;
16928;SDS011;8581;47.334;11.190;2023-07-09T15:12:37;5.67;;;2.60;;
16928;SDS011;8581;47.334;11.190;2023-07-09T15:15:13;2.60;;;2.40;;
16928;SDS011;8581;47.334;11.190;2023-07-09T15:17:49;3.45;;;2.77;;
16928;SDS011;8581;47.334;11.190;2023-07-09T15:20:23;3.25;;;2.77;;
16928;SDS011;8581;47.334;11.190;2023-07-09T15:22:53;2.95;;;2.60;;
16928;SDS011;8581;47.334;11.190;2023-07-09T15:25:26;3.20;;;2.80;;
16928;SDS011;8581;47.334;11.190;2023-07-09T15:27:56;5.08;;;2.90;;